This is the latest recevied weather packets stored in our database for station/object OK1TBF-15. If no packets are shown the sender has not sent any weather packets the latest 10 day(s).
| Time | Temp. | Humidity | Pressure | Rain* | Wind** | Luminosity | Snow |
|---|---|---|---|---|---|---|---|
| 1778087865 | 16.67° C | 61% | 1004.8 hPa | - | - | - | - |
| 1778087265 | 17.22° C | 59% | 1004.8 hPa | - | - | - | - |
| 1778086665 | 16.67° C | 60% | 1004.8 hPa | - | - | - | - |
| 1778086065 | 16.67° C | 61% | 1005 hPa | - | - | - | - |
| 1778085465 | 16.67° C | 59% | 1005.1 hPa | - | - | - | - |
| 1778084865 | 18.89° C | 52% | 1005 hPa | - | - | - | - |
| 1778084265 | 20° C | 46% | 1004.7 hPa | - | - | - | - |
| 1778083665 | 19.44° C | 46% | 1004.9 hPa | - | - | - | - |
| 1778083065 | 20° C | 46% | 1005 hPa | - | - | - | - |
| 1778082465 | 20° C | 48% | 1005.2 hPa | - | - | - | - |
| 1778081641 | 20° C | 46% | 1005.4 hPa | - | - | - | - |
| 1778081047 | 19.44° C | 46% | 1005.5 hPa | - | - | - | - |
| 1778080579 | 20° C | 44% | 1005.5 hPa | - | - | - | - |
| 1778079979 | 20° C | 44% | 1005.6 hPa | - | - | - | - |
| 1778079379 | 20° C | 42% | 1005.7 hPa | - | - | - | - |
| 1778078779 | 20° C | 43% | 1005.8 hPa | - | - | - | - |
| 1778078179 | 20° C | 45% | 1005.9 hPa | - | - | - | - |
| 1778077579 | 20° C | 45% | 1006 hPa | - | - | - | - |
| 1778076979 | 20° C | 45% | 1006.1 hPa | - | - | - | - |
| 1778076379 | 20° C | 44% | 1006.1 hPa | - | - | - | - |
| 1778075779 | 20° C | 45% | 1006.3 hPa | - | - | - | - |
| 1778075179 | 20° C | 45% | 1006.4 hPa | - | - | - | - |
| 1778074579 | 20° C | 44% | 1006.6 hPa | - | - | - | - |
| 1778073979 | 20° C | 43% | 1006.7 hPa | - | - | - | - |
| 1778073379 | 20.56° C | 41% | 1006.8 hPa | - | - | - | - |
* Rain since midnight (hover to see other rain measurements)
** Current wind speed in m/s (hover to see current wind gust speed)